createdAt,value
2019-03-18T00:01:44.238Z,2.53
2019-03-18T00:04:15.500Z,2.50
2019-03-18T00:06:46.136Z,2.40
2019-03-18T00:09:18.523Z,2.57
2019-03-18T00:12:09.471Z,2.80
2019-03-18T00:14:42.439Z,2.50
2019-03-18T00:17:12.637Z,2.50
2019-03-18T00:19:44.537Z,2.73
2019-03-18T00:22:15.332Z,2.93
2019-03-18T00:24:48.145Z,3.03
2019-03-18T00:27:19.903Z,2.90
2019-03-18T00:29:52.330Z,3.10
2019-03-18T00:32:23.217Z,3.27
2019-03-18T00:34:54.717Z,3.47
2019-03-18T00:37:25.199Z,3.40
2019-03-18T00:39:58.468Z,3.50
2019-03-18T00:42:29.541Z,2.93
2019-03-18T00:45:00.379Z,2.87
2019-03-18T00:47:33.238Z,3.17
2019-03-18T00:50:05.410Z,3.27
2019-03-18T00:52:35.643Z,3.00
2019-03-18T00:55:08.421Z,3.20
2019-03-18T00:57:40.036Z,3.33
2019-03-18T01:00:14.039Z,3.50
2019-03-18T01:02:44.797Z,3.33
2019-03-18T01:05:16.046Z,3.40
2019-03-18T01:07:48.828Z,3.07
2019-03-18T01:10:20.710Z,3.53
2019-03-18T01:12:52.247Z,3.30
2019-03-18T01:15:28.261Z,3.60
2019-03-18T01:17:56.431Z,3.40
2019-03-18T01:20:27.210Z,3.60
2019-03-18T01:22:57.666Z,3.60
2019-03-18T01:25:30.254Z,3.67
2019-03-18T01:28:02.684Z,3.73
2019-03-18T01:30:35.788Z,3.53
2019-03-18T01:33:09.525Z,4.10
2019-03-18T01:35:45.158Z,3.03
2019-03-18T01:38:17.015Z,3.00
2019-03-18T01:40:50.785Z,3.17
2019-03-18T01:43:21.272Z,3.30
2019-03-18T01:45:52.321Z,3.30
2019-03-18T01:48:22.803Z,3.40
2019-03-18T01:50:56.928Z,3.23
2019-03-18T01:53:28.373Z,3.40
2019-03-18T01:56:01.434Z,3.30
2019-03-18T01:58:32.681Z,3.60
2019-03-18T02:01:05.450Z,3.40
2019-03-18T02:03:38.381Z,3.53
2019-03-18T02:06:11.371Z,3.53
2019-03-18T02:08:41.525Z,3.53
2019-03-18T02:11:13.928Z,3.03
2019-03-18T02:13:46.403Z,2.93
2019-03-18T02:16:17.921Z,3.47
2019-03-18T02:18:49.962Z,2.80
2019-03-18T02:21:21.034Z,2.90
2019-03-18T02:23:51.948Z,2.93
2019-03-18T02:26:23.137Z,2.90
2019-03-18T02:28:54.000Z,3.10
2019-03-18T02:31:25.368Z,2.90
2019-03-18T02:33:55.894Z,3.10
2019-03-18T02:49:34.086Z,3.17
2019-03-18T03:10:07.434Z,2.80
2019-03-18T03:12:39.938Z,2.50
2019-03-18T03:15:12.056Z,2.80
2019-03-18T03:17:43.722Z,2.70
2019-03-18T03:20:15.924Z,2.60
2019-03-18T03:22:48.932Z,2.60
2019-03-18T03:25:25.340Z,2.70
2019-03-18T03:27:57.530Z,2.83
2019-03-18T03:30:28.797Z,2.70
2019-03-18T03:32:59.196Z,2.90
2019-03-18T03:35:33.424Z,2.97
2019-03-18T03:38:07.633Z,2.80
2019-03-18T03:40:39.236Z,3.37
2019-03-18T03:43:13.514Z,3.10
2019-03-18T03:45:44.506Z,3.10
2019-03-18T03:48:16.267Z,3.17
2019-03-18T03:50:49.599Z,2.97
2019-03-18T03:53:24.264Z,3.20
2019-03-18T03:55:55.344Z,3.23
2019-03-18T03:58:30.545Z,3.30
2019-03-18T04:01:01.381Z,3.07
2019-03-18T04:03:38.560Z,3.03
2019-03-18T04:06:08.384Z,3.40
2019-03-18T04:08:39.801Z,3.40
2019-03-18T04:11:16.625Z,3.17
2019-03-18T04:13:47.519Z,3.77
2019-03-18T04:16:24.693Z,3.87
2019-03-18T04:18:55.389Z,3.37
2019-03-18T04:21:25.640Z,4.17
2019-03-18T04:23:56.751Z,3.50
2019-03-18T04:26:30.608Z,3.60
2019-03-18T04:29:01.214Z,3.70
2019-03-18T04:31:32.768Z,3.17
2019-03-18T04:34:03.632Z,3.70
2019-03-18T04:36:43.097Z,3.93
2019-03-18T04:39:15.266Z,3.93
2019-03-18T04:41:48.663Z,3.77
2019-03-18T04:44:21.265Z,3.80
2019-03-18T04:46:51.854Z,4.40
2019-03-18T04:49:25.657Z,3.90
2019-03-18T04:51:55.938Z,4.00
2019-03-18T04:54:26.828Z,4.67
2019-03-18T04:56:59.791Z,4.10
2019-03-18T04:59:30.314Z,3.63
2019-03-18T05:02:18.103Z,3.70
2019-03-18T05:04:49.972Z,3.80
2019-03-18T05:07:48.408Z,4.17
2019-03-18T05:10:47.144Z,3.90
2019-03-18T05:13:26.421Z,4.17
2019-03-18T05:16:00.122Z,4.03
2019-03-18T05:18:59.518Z,4.60
2019-03-18T05:21:35.047Z,4.10
2019-03-18T05:24:13.175Z,4.13
2019-03-18T05:26:43.910Z,4.03
2019-03-18T05:29:15.418Z,4.27
2019-03-18T05:31:46.541Z,4.00
2019-03-18T05:34:17.821Z,4.20
2019-03-18T05:36:54.019Z,4.13
2019-03-18T05:39:25.478Z,4.03
2019-03-18T05:41:55.745Z,4.73
2019-03-18T05:44:27.128Z,4.23
2019-03-18T05:46:57.370Z,4.10
2019-03-18T05:49:28.427Z,4.90
2019-03-18T05:52:06.548Z,4.97
2019-03-18T05:54:51.772Z,4.53
2019-03-18T05:57:53.154Z,4.80
2019-03-18T06:00:26.873Z,4.67
2019-03-18T06:02:58.496Z,4.80
2019-03-18T06:05:31.069Z,4.93
2019-03-18T06:08:01.235Z,5.20
2019-03-18T06:10:31.493Z,5.30
2019-03-18T06:13:02.868Z,5.20
2019-03-18T06:15:33.985Z,6.13
2019-03-18T06:18:24.834Z,5.73
2019-03-18T06:21:06.221Z,5.80
2019-03-18T06:23:51.259Z,5.77
2019-03-18T06:26:23.826Z,6.30
2019-03-18T06:28:55.630Z,7.00
2019-03-18T06:31:27.098Z,6.53
2019-03-18T06:33:58.910Z,6.37
2019-03-18T06:36:31.301Z,6.27
2019-03-18T06:39:06.390Z,6.57
2019-03-18T06:41:37.579Z,6.30
2019-03-18T06:44:08.516Z,6.30
2019-03-18T06:46:39.620Z,6.20
2019-03-18T06:49:17.806Z,6.13
2019-03-18T06:51:48.414Z,6.63
2019-03-18T06:54:19.664Z,6.13
2019-03-18T06:56:52.571Z,6.50
2019-03-18T06:59:25.124Z,6.20
2019-03-18T07:01:55.678Z,6.30
2019-03-18T07:04:39.779Z,6.60
2019-03-18T07:07:10.581Z,6.50
2019-03-18T07:09:44.686Z,7.10
2019-03-18T07:12:16.245Z,7.40
2019-03-18T07:14:46.989Z,6.63
2019-03-18T07:17:18.424Z,6.90
2019-03-18T07:19:49.912Z,6.60
2019-03-18T07:22:21.909Z,6.90
2019-03-18T07:25:03.489Z,6.60
2019-03-18T07:27:35.243Z,6.10
2019-03-18T07:30:06.437Z,6.50
2019-03-18T07:32:37.210Z,6.30
2019-03-18T07:35:11.806Z,6.30
2019-03-18T07:37:45.509Z,6.90
2019-03-18T07:40:17.988Z,7.27
2019-03-18T07:42:49.531Z,6.73
2019-03-18T07:45:21.462Z,6.90
2019-03-18T07:47:53.691Z,7.10
2019-03-18T07:50:25.762Z,6.53
2019-03-18T07:52:56.706Z,7.00
2019-03-18T07:55:28.285Z,7.20
2019-03-18T07:58:03.389Z,7.63
2019-03-18T08:00:39.335Z,6.87
2019-03-18T08:03:10.585Z,7.50
2019-03-18T08:05:42.073Z,7.10
2019-03-18T08:08:15.301Z,6.73
2019-03-18T08:10:45.683Z,6.73
2019-03-18T08:13:15.847Z,7.00
2019-03-18T08:15:46.795Z,6.53
2019-03-18T08:18:18.247Z,7.43
2019-03-18T08:20:53.344Z,6.87
2019-03-18T08:23:23.697Z,6.90
2019-03-18T08:25:53.982Z,6.23
2019-03-18T08:28:25.812Z,6.57
2019-03-18T08:30:56.032Z,6.17
2019-03-18T08:33:27.934Z,6.57
2019-03-18T08:36:01.202Z,6.40
2019-03-18T08:38:32.259Z,6.20
2019-03-18T08:41:02.829Z,6.13
2019-03-18T08:43:35.098Z,6.20
2019-03-18T08:46:08.022Z,5.93
2019-03-18T08:48:38.519Z,6.47
2019-03-18T08:51:11.544Z,6.27
2019-03-18T08:53:43.758Z,6.00
2019-03-18T08:56:14.694Z,5.63
2019-03-18T08:58:45.681Z,5.90
2019-03-18T09:01:16.548Z,5.80
2019-03-18T09:03:46.802Z,4.90
2019-03-18T09:06:17.513Z,4.83
2019-03-18T09:08:48.698Z,4.53
2019-03-18T09:11:19.132Z,4.57
2019-03-18T09:13:50.171Z,4.47
2019-03-18T09:16:22.790Z,4.60
2019-03-18T09:18:54.608Z,4.70
2019-03-18T09:21:30.497Z,4.33
2019-03-18T09:24:03.842Z,4.13
2019-03-18T09:26:35.991Z,3.90
2019-03-18T09:29:07.078Z,4.10
2019-03-18T09:31:41.573Z,3.97
2019-03-18T09:34:17.136Z,3.90
2019-03-18T09:36:52.323Z,3.87
2019-03-18T09:39:26.513Z,3.80
2019-03-18T09:41:59.188Z,3.57
2019-03-18T09:44:31.253Z,3.20
2019-03-18T09:47:04.625Z,2.80
2019-03-18T09:49:35.573Z,3.10
2019-03-18T09:52:06.496Z,3.03
2019-03-18T09:54:37.387Z,2.93
2019-03-18T09:57:10.152Z,3.00
2019-03-18T09:59:43.242Z,3.23
2019-03-18T10:02:15.062Z,2.70
2019-03-18T10:04:47.186Z,3.03
2019-03-18T10:07:19.982Z,2.70
2019-03-18T10:09:51.728Z,2.43
2019-03-18T10:12:23.487Z,2.57
2019-03-18T10:14:55.485Z,2.50
2019-03-18T10:17:25.704Z,2.17
2019-03-18T10:19:57.525Z,2.33
2019-03-18T10:22:28.166Z,2.40
2019-03-18T10:24:59.687Z,2.50
2019-03-18T10:27:30.985Z,2.10
2019-03-18T10:30:04.345Z,2.80
2019-03-18T10:32:34.942Z,2.20
2019-03-18T10:35:11.794Z,2.70
2019-03-18T10:37:42.285Z,2.57
2019-03-18T10:40:17.243Z,2.63
2019-03-18T10:42:50.172Z,2.80
2019-03-18T10:45:25.940Z,2.60
2019-03-18T10:47:57.540Z,2.50
2019-03-18T10:50:28.145Z,2.90
2019-03-18T10:53:05.914Z,2.83
2019-03-18T10:55:37.091Z,2.50
2019-03-18T10:58:07.152Z,3.07
2019-03-18T11:00:40.243Z,2.53
2019-03-18T11:03:11.429Z,2.40
2019-03-18T11:05:41.971Z,2.40
2019-03-18T11:08:13.377Z,2.07
2019-03-18T11:10:46.436Z,2.20
2019-03-18T11:13:18.580Z,2.20
2019-03-18T11:15:51.368Z,2.20
2019-03-18T11:18:21.521Z,2.20
2019-03-18T11:20:52.799Z,2.37
2019-03-18T11:23:24.838Z,2.40
2019-03-18T11:25:56.224Z,2.70
2019-03-18T11:28:31.645Z,2.80
2019-03-18T11:31:02.326Z,2.33
2019-03-18T11:33:35.175Z,2.50
2019-03-18T11:36:07.875Z,2.30
2019-03-18T11:39:47.829Z,2.43
2019-03-18T11:42:38.256Z,2.53
2019-03-18T11:45:10.201Z,2.40
2019-03-18T11:47:41.190Z,2.13
2019-03-18T11:50:13.397Z,2.23
2019-03-18T11:52:44.251Z,1.90
2019-03-18T11:55:16.081Z,1.77
2019-03-18T11:57:49.432Z,1.70
2019-03-18T12:00:20.535Z,1.83
2019-03-18T12:02:52.148Z,1.90
2019-03-18T12:05:26.374Z,2.00
2019-03-18T12:08:00.461Z,1.90
2019-03-18T12:10:35.851Z,2.00
2019-03-18T12:13:07.151Z,1.80
2019-03-18T12:15:37.367Z,2.10
2019-03-18T12:18:08.724Z,2.87
2019-03-18T12:20:41.317Z,2.00
2019-03-18T12:23:15.293Z,2.20
2019-03-18T12:25:48.435Z,2.30
2019-03-18T12:28:20.264Z,2.50
2019-03-18T12:30:51.207Z,2.60
2019-03-18T12:33:23.122Z,2.60
2019-03-18T12:35:53.295Z,2.63
2019-03-18T12:38:25.362Z,2.57
2019-03-18T12:40:57.815Z,2.90
2019-03-18T12:43:37.071Z,2.50
2019-03-18T12:46:07.364Z,2.70
2019-03-18T12:48:37.821Z,2.50
2019-03-18T12:51:08.441Z,2.00
2019-03-18T12:53:39.180Z,2.07
2019-03-18T12:56:09.350Z,1.80
2019-03-18T12:58:41.795Z,2.00
2019-03-18T13:01:12.945Z,2.40
2019-03-18T13:03:48.389Z,2.20
2019-03-18T13:06:21.325Z,2.00
2019-03-18T13:08:53.639Z,1.90
2019-03-18T13:11:25.285Z,1.80
2019-03-18T13:13:58.451Z,1.87
2019-03-18T13:16:28.798Z,1.80
2019-03-18T13:18:59.419Z,1.70
2019-03-18T13:21:30.937Z,1.77
2019-03-18T13:24:01.593Z,1.90
2019-03-18T13:26:32.139Z,1.98
2019-03-18T13:29:03.290Z,1.70
2019-03-18T13:31:34.838Z,1.83
2019-03-18T13:34:06.231Z,2.13
2019-03-18T13:36:36.734Z,2.20
2019-03-18T13:39:09.196Z,2.00
2019-03-18T13:41:42.067Z,1.80
2019-03-18T13:44:13.262Z,2.07
2019-03-18T13:46:43.450Z,1.93
2019-03-18T13:49:15.990Z,2.30
2019-03-18T13:51:47.081Z,2.20
2019-03-18T13:54:19.847Z,2.30
2019-03-18T13:56:53.382Z,2.37
2019-03-18T13:59:28.621Z,2.10
2019-03-18T14:02:00.066Z,2.00
2019-03-18T14:04:38.022Z,1.73
2019-03-18T14:07:09.698Z,2.10
2019-03-18T14:09:42.538Z,2.30
2019-03-18T14:12:38.175Z,2.10
2019-03-18T14:15:14.306Z,1.80
2019-03-18T14:17:45.588Z,2.20
2019-03-18T14:20:21.492Z,1.97
2019-03-18T14:22:52.002Z,2.20
2019-03-18T14:25:23.076Z,2.20
2019-03-18T14:27:55.991Z,2.60
2019-03-18T14:30:32.832Z,2.60
2019-03-18T14:33:05.477Z,3.30
2019-03-18T14:35:41.045Z,2.60
2019-03-18T14:38:11.233Z,2.57
2019-03-18T14:40:46.015Z,2.93
2019-03-18T14:43:16.991Z,2.57
2019-03-18T14:45:52.253Z,2.70
2019-03-18T14:48:26.158Z,3.00
2019-03-18T14:50:59.217Z,3.40
2019-03-18T14:53:30.561Z,2.77
2019-03-18T14:56:02.703Z,2.87
2019-03-18T14:58:35.528Z,2.90
2019-03-18T15:01:08.952Z,2.90
2019-03-18T15:03:39.533Z,2.70
2019-03-18T15:06:14.478Z,3.20
2019-03-18T15:08:46.685Z,3.43
2019-03-18T15:11:19.163Z,3.17
2019-03-18T15:13:51.412Z,3.10
2019-03-18T15:16:22.890Z,2.60
2019-03-18T15:18:56.120Z,2.53
2019-03-18T15:21:26.970Z,2.80
2019-03-18T15:23:58.193Z,3.30
2019-03-18T15:26:29.738Z,2.90
2019-03-18T15:29:02.474Z,2.43
2019-03-18T15:31:35.563Z,3.53
2019-03-18T15:34:06.072Z,2.40
2019-03-18T15:36:43.075Z,2.67
2019-03-18T15:39:13.682Z,2.60
2019-03-18T15:41:44.298Z,2.40
2019-03-18T15:44:14.754Z,2.60
2019-03-18T15:46:49.556Z,2.80
2019-03-18T15:49:22.159Z,2.57
2019-03-18T15:51:52.478Z,2.80
2019-03-18T15:54:23.640Z,2.80
2019-03-18T15:56:55.239Z,2.43
2019-03-18T15:59:28.253Z,2.27
2019-03-18T16:01:59.734Z,2.93
2019-03-18T16:04:34.418Z,2.40
2019-03-18T16:07:10.086Z,2.17
2019-03-18T16:09:44.081Z,2.30
2019-03-18T16:12:18.495Z,2.40
2019-03-18T16:14:53.870Z,2.47
2019-03-18T16:17:28.488Z,2.10
2019-03-18T16:20:06.726Z,2.00
2019-03-18T16:22:41.025Z,1.90
2019-03-18T16:25:18.541Z,1.50
2019-03-18T16:27:50.843Z,1.70
2019-03-18T16:30:21.463Z,1.60
2019-03-18T16:32:58.463Z,1.80
2019-03-18T16:35:31.024Z,1.73
2019-03-18T16:38:03.422Z,2.40
2019-03-18T16:40:37.108Z,2.10
2019-03-18T16:43:10.587Z,2.13
2019-03-18T16:45:45.595Z,1.80
2019-03-18T16:48:21.101Z,1.93
2019-03-18T16:50:57.796Z,2.37
2019-03-18T16:53:28.385Z,2.37
2019-03-18T16:56:02.597Z,2.30
2019-03-18T16:58:32.869Z,2.03
2019-03-18T17:01:03.481Z,2.20
2019-03-18T17:03:43.558Z,2.17
2019-03-18T17:06:14.745Z,4.00
2019-03-18T17:08:46.288Z,2.60
2019-03-18T17:11:20.347Z,2.07
2019-03-18T17:13:51.084Z,2.37
2019-03-18T17:16:22.096Z,2.30
2019-03-18T17:18:54.861Z,2.10
2019-03-18T17:21:26.959Z,2.40
2019-03-18T17:23:57.262Z,2.10
2019-03-18T17:26:28.191Z,2.53
2019-03-18T17:29:07.142Z,2.20
2019-03-18T17:32:14.733Z,2.23
2019-03-18T17:34:46.901Z,2.27
2019-03-18T17:37:20.006Z,2.30
2019-03-18T17:39:52.410Z,2.50
2019-03-18T17:42:23.000Z,2.47
2019-03-18T17:44:53.252Z,2.20
2019-03-18T17:47:24.382Z,2.60
2019-03-18T17:49:56.299Z,2.80
2019-03-18T17:52:27.379Z,2.33
2019-03-18T17:55:01.078Z,2.90
2019-03-18T17:57:36.423Z,2.60
2019-03-18T18:00:13.417Z,2.70
2019-03-18T18:02:56.122Z,2.57
2019-03-18T18:05:27.999Z,2.60
2019-03-18T18:08:00.621Z,2.33
2019-03-18T18:10:35.989Z,2.93
2019-03-18T18:15:56.816Z,2.47
2019-03-18T18:18:28.850Z,2.40
2019-03-18T18:20:59.402Z,2.50
2019-03-18T18:23:29.941Z,2.83
2019-03-18T18:26:00.904Z,2.37
2019-03-18T18:28:31.620Z,2.80
2019-03-18T18:31:02.058Z,2.90
2019-03-18T18:33:32.211Z,3.00
2019-03-18T18:36:05.101Z,2.50
2019-03-18T18:38:35.669Z,2.53
2019-03-18T18:41:07.274Z,2.63
2019-03-18T18:43:37.443Z,2.37
2019-03-18T18:46:11.035Z,2.87
2019-03-18T18:48:45.111Z,2.70
2019-03-18T18:51:16.966Z,2.67
2019-03-18T18:54:32.601Z,2.93
2019-03-18T18:57:15.794Z,3.97
2019-03-18T18:59:48.723Z,3.60
2019-03-18T19:02:27.242Z,3.63
2019-03-18T19:05:02.099Z,3.30
2019-03-18T19:07:34.755Z,3.50
2019-03-18T19:10:05.621Z,3.67
2019-03-18T19:12:40.838Z,3.80
2019-03-18T19:15:21.625Z,4.43
2019-03-18T19:17:55.241Z,4.37
2019-03-18T19:20:28.092Z,4.57
2019-03-18T19:23:00.120Z,5.17
2019-03-18T19:25:33.129Z,4.77
2019-03-18T19:28:03.360Z,4.53
2019-03-18T19:30:37.207Z,4.60
2019-03-18T19:33:08.020Z,4.40
2019-03-18T19:35:39.915Z,4.13
2019-03-18T19:38:13.806Z,4.20
2019-03-18T19:40:46.595Z,4.43
2019-03-18T19:43:18.577Z,4.17
2019-03-18T19:45:49.870Z,3.47
2019-03-18T19:48:20.747Z,3.80
2019-03-18T19:50:52.562Z,3.80
2019-03-18T19:53:24.743Z,3.43
2019-03-18T19:55:55.258Z,3.67
2019-03-18T19:58:31.877Z,3.80
2019-03-18T20:01:11.552Z,4.33
2019-03-18T20:03:41.915Z,3.80
2019-03-18T20:06:14.510Z,4.47
2019-03-18T20:08:54.009Z,4.47
2019-03-18T20:11:24.911Z,4.20
2019-03-18T20:13:58.376Z,4.40
2019-03-18T20:16:32.004Z,4.57
2019-03-18T20:19:03.946Z,4.10
2019-03-18T20:21:34.550Z,4.40
2019-03-18T20:24:06.308Z,3.80
2019-03-18T20:26:41.325Z,3.80
2019-03-18T20:29:15.976Z,3.47
2019-03-18T20:31:49.121Z,3.10
2019-03-18T20:34:21.370Z,4.30
2019-03-18T20:36:54.032Z,3.37
2019-03-18T20:39:27.214Z,3.60
2019-03-18T20:42:00.248Z,3.03
2019-03-18T20:44:32.205Z,3.40
2019-03-18T20:47:04.862Z,4.10
2019-03-18T20:49:36.877Z,3.77
2019-03-18T20:52:16.686Z,4.13
2019-03-18T20:54:43.008Z,3.17
2019-03-18T20:57:14.983Z,3.70
2019-03-18T20:59:45.548Z,4.00
2019-03-18T21:02:17.696Z,4.03
2019-03-18T21:04:49.011Z,4.03
2019-03-18T21:07:19.608Z,4.83
2019-03-18T21:09:54.715Z,3.80
2019-03-18T21:12:28.380Z,3.63
2019-03-18T21:15:01.763Z,4.37
2019-03-18T21:17:36.077Z,4.10
2019-03-18T21:20:09.765Z,4.10
2019-03-18T21:22:41.135Z,4.30
2019-03-18T21:25:14.327Z,3.90
2019-03-18T21:27:46.545Z,4.23
2019-03-18T21:30:16.822Z,3.80
2019-03-18T21:32:48.091Z,4.27
2019-03-18T21:35:19.356Z,4.53
2019-03-18T21:37:51.863Z,4.00
2019-03-18T21:40:22.853Z,4.33
2019-03-18T21:42:55.757Z,4.40
2019-03-18T21:45:26.935Z,3.83
2019-03-18T21:47:59.794Z,4.57
2019-03-18T21:50:32.394Z,3.90
2019-03-18T21:53:08.001Z,4.27
2019-03-18T21:55:47.182Z,4.03
2019-03-18T21:58:21.429Z,4.13
2019-03-18T22:01:18.239Z,4.20
2019-03-18T22:03:51.386Z,4.10
2019-03-18T22:06:33.079Z,3.73
2019-03-18T22:09:11.519Z,4.10
2019-03-18T22:11:48.988Z,4.63
2019-03-18T22:14:25.892Z,4.10
2019-03-18T22:24:27.281Z,4.17
2019-03-18T22:27:05.533Z,4.27
2019-03-18T22:29:41.568Z,3.40
2019-03-18T22:32:24.928Z,3.97
2019-03-18T22:35:04.465Z,4.20
2019-03-18T22:37:49.478Z,4.10
2019-03-18T22:40:34.656Z,4.23
2019-03-18T22:44:01.924Z,3.80
2019-03-18T22:46:39.241Z,3.90
2019-03-18T22:49:37.163Z,4.50
2019-03-18T22:52:35.907Z,4.50
2019-03-18T22:56:10.799Z,3.90
2019-03-18T23:02:10.928Z,4.23
2019-03-18T23:05:22.223Z,4.60
2019-03-18T23:08:11.490Z,4.17
2019-03-18T23:10:44.832Z,4.50
2019-03-18T23:13:22.392Z,4.70
2019-03-18T23:16:15.963Z,4.83
2019-03-18T23:18:57.585Z,4.70
2019-03-18T23:21:37.320Z,4.70
2019-03-18T23:24:20.218Z,5.47
2019-03-18T23:26:51.757Z,5.03
2019-03-18T23:29:22.368Z,5.27
2019-03-18T23:31:54.858Z,5.43
2019-03-18T23:34:25.039Z,5.00
2019-03-18T23:37:00.424Z,4.50
2019-03-18T23:39:32.522Z,5.40
2019-03-18T23:42:05.138Z,4.87
2019-03-18T23:44:36.563Z,4.80
2019-03-18T23:47:07.552Z,4.43
2019-03-18T23:49:38.147Z,4.53
2019-03-18T23:52:11.139Z,4.57
2019-03-18T23:54:42.826Z,4.50
2019-03-18T23:57:14.477Z,4.23
2019-03-18T23:59:46.176Z,4.37
